Magnolia Beach, Texas
Current Conditions -  °F | °C
As of 10:15 AM on Tuesday 27 Jan 2015 (Local Time) from KPKV Reporting Station
Clear Clear  
Wind Chill: 65°   Ceiling: Unl
Heat Index: 65°   Visibility: 10mi
Dew Point: 47°   Wind: 9mph
Humidity: 52%   Direction: 280°W
Pressure: 30.22"   Gusts: NA
Location:  28.5342°N, 96.663°W
Report Text: KPKV 271615Z AUTO 28008KT 10SM CLR 18/08 A3022 RMK AO2 T01820081
Loading
Personal Weather Stations






























Interactive Weather Map New forecast layout! Learn more

10-Day Weather Forecast

Advertisements
Track Severe Weather on mobile